New Richmond Regional Airport New Richmond US
ICAO: KRNH
IATA: RNH
Category: Medium
Scheduled Services: No

Elevation: 998 ft
TransAlt. 18000 ft.

Airport Communications:
MINNEAPOLIS APP/DEP:121.2
AWOS 3:120
CTAF/UNICOM:122.975

KRNH Zoom In..

If Map Doesn't Load, Click Here

Runways:

(A) RW 04 length 2050 ft width 75 ft
---- / hdg 42

(B) RW 14 length 5507 ft width 75 ft
---- / hdg 141

(C) RW 22 length 2050 ft width 75 ft
---- / hdg 222

(D) RW 32 length 5507 ft width 75 ft
---- / hdg 321

Location; KRNH
Day. 24 / Time. 05.55 Zulu
* Altimeter: 29.99
* Temperature: 14° c. 57.2°f.
* Wind from: 140° Speed 06 kn.
Dewpoint: 10° c.
Visibility: 10 Statute Miles.
Clouds: Clear (automated report).

KRNH 240555Z AUTO 14006KT 10SM CLR 14/10 A2999 RMK AO2 T01370097 10183 20137 402230079


Wind From 140°
Speed 06 kn.

 
 
jpsmedia.com for Web Design worldairports.se 2018   terms of use